sensor_id;sensor_type;location;lat;lon;timestamp;P1;durP1;ratioP1;P2;durP2;ratioP2
3853;SDS011;1942;48.770;8.934;2022-08-11T00:01:04;5.80;;;2.10;;
3853;SDS011;1942;48.770;8.934;2022-08-11T00:03:33;2.40;;;2.20;;
3853;SDS011;1942;48.770;8.934;2022-08-11T00:06:01;3.53;;;2.40;;
3853;SDS011;1942;48.770;8.934;2022-08-11T00:08:30;3.17;;;1.97;;
3853;SDS011;1942;48.770;8.934;2022-08-11T00:11:01;3.43;;;2.13;;
3853;SDS011;1942;48.770;8.934;2022-08-11T00:13:31;4.23;;;2.17;;
3853;SDS011;1942;48.770;8.934;2022-08-11T00:16:00;4.43;;;2.00;;
3853;SDS011;1942;48.770;8.934;2022-08-11T00:18:28;2.10;;;1.80;;
3853;SDS011;1942;48.770;8.934;2022-08-11T00:21:03;2.50;;;2.00;;
3853;SDS011;1942;48.770;8.934;2022-08-11T00:23:31;3.87;;;2.10;;
3853;SDS011;1942;48.770;8.934;2022-08-11T00:26:05;1.97;;;1.87;;
3853;SDS011;1942;48.770;8.934;2022-08-11T00:28:33;2.43;;;2.13;;
3853;SDS011;1942;48.770;8.934;2022-08-11T00:31:02;2.37;;;2.10;;
3853;SDS011;1942;48.770;8.934;2022-08-11T00:33:31;2.43;;;2.00;;
3853;SDS011;1942;48.770;8.934;2022-08-11T00:36:00;2.93;;;2.10;;
3853;SDS011;1942;48.770;8.934;2022-08-11T00:38:30;3.43;;;2.10;;
3853;SDS011;1942;48.770;8.934;2022-08-11T00:41:03;5.20;;;2.00;;
3853;SDS011;1942;48.770;8.934;2022-08-11T00:43:40;4.90;;;2.27;;
3853;SDS011;1942;48.770;8.934;2022-08-11T00:46:15;4.13;;;2.10;;
3853;SDS011;1942;48.770;8.934;2022-08-11T00:49:00;2.73;;;2.13;;
3853;SDS011;1942;48.770;8.934;2022-08-11T00:51:40;2.13;;;1.93;;
3853;SDS011;1942;48.770;8.934;2022-08-11T00:54:26;4.60;;;2.10;;
3853;SDS011;1942;48.770;8.934;2022-08-11T01:00:13;2.23;;;1.93;;
3853;SDS011;1942;48.770;8.934;2022-08-11T01:02:44;2.27;;;2.07;;
3853;SDS011;1942;48.770;8.934;2022-08-11T01:05:40;2.50;;;2.30;;
3853;SDS011;1942;48.770;8.934;2022-08-11T01:08:27;2.30;;;1.87;;
3853;SDS011;1942;48.770;8.934;2022-08-11T01:11:17;4.50;;;2.17;;
3853;SDS011;1942;48.770;8.934;2022-08-11T01:20:18;2.73;;;2.30;;
3853;SDS011;1942;48.770;8.934;2022-08-11T01:26:29;1.90;;;1.80;;
3853;SDS011;1942;48.770;8.934;2022-08-11T01:32:59;3.83;;;2.20;;
3853;SDS011;1942;48.770;8.934;2022-08-11T01:36:01;2.30;;;2.10;;
3853;SDS011;1942;48.770;8.934;2022-08-11T01:38:57;2.80;;;2.17;;
3853;SDS011;1942;48.770;8.934;2022-08-11T01:41:41;3.00;;;2.10;;
3853;SDS011;1942;48.770;8.934;2022-08-11T01:44:52;2.30;;;2.10;;
3853;SDS011;1942;48.770;8.934;2022-08-11T01:47:32;3.70;;;2.40;;
3853;SDS011;1942;48.770;8.934;2022-08-11T01:50:20;3.40;;;2.17;;
3853;SDS011;1942;48.770;8.934;2022-08-11T01:53:07;2.70;;;2.20;;
3853;SDS011;1942;48.770;8.934;2022-08-11T01:55:42;2.30;;;2.10;;
3853;SDS011;1942;48.770;8.934;2022-08-11T01:58:21;2.53;;;1.97;;
3853;SDS011;1942;48.770;8.934;2022-08-11T02:00:57;2.50;;;2.00;;
3853;SDS011;1942;48.770;8.934;2022-08-11T02:03:38;2.63;;;2.43;;
3853;SDS011;1942;48.770;8.934;2022-08-11T02:06:20;4.00;;;2.13;;
3853;SDS011;1942;48.770;8.934;2022-08-11T02:09:17;2.73;;;2.33;;
3853;SDS011;1942;48.770;8.934;2022-08-11T02:11:51;2.77;;;2.33;;
3853;SDS011;1942;48.770;8.934;2022-08-11T02:14:30;1.97;;;1.87;;
3853;SDS011;1942;48.770;8.934;2022-08-11T02:17:09;2.40;;;2.20;;
3853;SDS011;1942;48.770;8.934;2022-08-11T02:19:47;2.57;;;2.20;;
3853;SDS011;1942;48.770;8.934;2022-08-11T02:22:37;2.30;;;2.10;;
3853;SDS011;1942;48.770;8.934;2022-08-11T02:25:35;2.60;;;2.40;;
3853;SDS011;1942;48.770;8.934;2022-08-11T02:28:06;2.40;;;2.00;;
3853;SDS011;1942;48.770;8.934;2022-08-11T02:30:49;3.10;;;2.23;;
3853;SDS011;1942;48.770;8.934;2022-08-11T02:33:38;4.60;;;2.20;;
3853;SDS011;1942;48.770;8.934;2022-08-11T02:36:09;2.53;;;2.10;;
3853;SDS011;1942;48.770;8.934;2022-08-11T02:38:46;2.73;;;2.27;;
3853;SDS011;1942;48.770;8.934;2022-08-11T02:41:22;2.57;;;2.27;;
3853;SDS011;1942;48.770;8.934;2022-08-11T02:44:15;3.20;;;2.20;;
3853;SDS011;1942;48.770;8.934;2022-08-11T02:46:50;3.87;;;2.13;;
3853;SDS011;1942;48.770;8.934;2022-08-11T02:49:35;3.27;;;2.43;;
3853;SDS011;1942;48.770;8.934;2022-08-11T02:52:19;2.30;;;2.10;;
3853;SDS011;1942;48.770;8.934;2022-08-11T02:54:52;3.53;;;2.40;;
3853;SDS011;1942;48.770;8.934;2022-08-11T02:57:39;4.47;;;2.40;;
3853;SDS011;1942;48.770;8.934;2022-08-11T03:00:09;2.57;;;2.33;;
3853;SDS011;1942;48.770;8.934;2022-08-11T03:05:35;2.97;;;2.20;;
3853;SDS011;1942;48.770;8.934;2022-08-11T03:08:30;2.40;;;2.13;;
3853;SDS011;1942;48.770;8.934;2022-08-11T03:11:16;2.83;;;2.20;;
3853;SDS011;1942;48.770;8.934;2022-08-11T03:14:08;2.70;;;2.50;;
3853;SDS011;1942;48.770;8.934;2022-08-11T03:17:02;2.37;;;2.00;;
3853;SDS011;1942;48.770;8.934;2022-08-11T03:19:36;2.27;;;2.03;;
3853;SDS011;1942;48.770;8.934;2022-08-11T03:22:16;2.50;;;2.30;;
3853;SDS011;1942;48.770;8.934;2022-08-11T03:24:52;2.30;;;2.10;;
3853;SDS011;1942;48.770;8.934;2022-08-11T03:30:15;3.10;;;2.80;;
3853;SDS011;1942;48.770;8.934;2022-08-11T03:32:57;3.00;;;2.40;;
3853;SDS011;1942;48.770;8.934;2022-08-11T03:35:53;2.50;;;2.30;;
3853;SDS011;1942;48.770;8.934;2022-08-11T03:38:35;2.73;;;2.20;;
3853;SDS011;1942;48.770;8.934;2022-08-11T03:41:19;5.97;;;2.37;;
3853;SDS011;1942;48.770;8.934;2022-08-11T03:44:12;2.50;;;2.30;;
3853;SDS011;1942;48.770;8.934;2022-08-11T03:49:44;3.20;;;2.43;;
3853;SDS011;1942;48.770;8.934;2022-08-11T03:52:27;3.37;;;2.53;;
3853;SDS011;1942;48.770;8.934;2022-08-11T03:55:03;2.63;;;2.43;;
3853;SDS011;1942;48.770;8.934;2022-08-11T04:07:40;2.67;;;2.47;;
3853;SDS011;1942;48.770;8.934;2022-08-11T04:10:50;3.30;;;2.80;;
3853;SDS011;1942;48.770;8.934;2022-08-11T04:13:39;3.80;;;3.10;;
3853;SDS011;1942;48.770;8.934;2022-08-11T04:16:43;4.40;;;3.77;;
3853;SDS011;1942;48.770;8.934;2022-08-11T04:25:42;3.00;;;2.80;;
3853;SDS011;1942;48.770;8.934;2022-08-11T04:31:36;2.77;;;2.57;;
3853;SDS011;1942;48.770;8.934;2022-08-11T04:34:05;6.10;;;2.80;;
3853;SDS011;1942;48.770;8.934;2022-08-11T04:37:06;3.53;;;2.70;;
3853;SDS011;1942;48.770;8.934;2022-08-11T04:40:02;3.70;;;3.40;;
3853;SDS011;1942;48.770;8.934;2022-08-11T04:52:27;4.33;;;2.73;;
3853;SDS011;1942;48.770;8.934;2022-08-11T04:55:42;3.87;;;2.53;;
3853;SDS011;1942;48.770;8.934;2022-08-11T04:58:46;3.37;;;2.90;;
3853;SDS011;1942;48.770;8.934;2022-08-11T05:01:39;3.17;;;2.80;;
3853;SDS011;1942;48.770;8.934;2022-08-11T05:04:40;4.97;;;3.27;;
3853;SDS011;1942;48.770;8.934;2022-08-11T05:10:50;3.10;;;2.80;;
3853;SDS011;1942;48.770;8.934;2022-08-11T05:13:26;3.00;;;2.70;;
3853;SDS011;1942;48.770;8.934;2022-08-11T05:16:12;6.10;;;3.27;;
3853;SDS011;1942;48.770;8.934;2022-08-11T05:19:00;3.03;;;2.73;;
3853;SDS011;1942;48.770;8.934;2022-08-11T05:21:51;3.17;;;2.87;;
3853;SDS011;1942;48.770;8.934;2022-08-11T05:24:40;3.30;;;3.00;;
3853;SDS011;1942;48.770;8.934;2022-08-11T05:27:29;3.53;;;3.00;;
3853;SDS011;1942;48.770;8.934;2022-08-11T05:30:18;3.50;;;3.17;;
3853;SDS011;1942;48.770;8.934;2022-08-11T05:33:08;5.20;;;3.50;;
3853;SDS011;1942;48.770;8.934;2022-08-11T05:35:57;3.40;;;2.80;;
3853;SDS011;1942;48.770;8.934;2022-08-11T05:38:32;3.40;;;2.97;;
3853;SDS011;1942;48.770;8.934;2022-08-11T05:41:19;4.87;;;2.80;;
3853;SDS011;1942;48.770;8.934;2022-08-11T05:44:08;4.60;;;2.87;;
3853;SDS011;1942;48.770;8.934;2022-08-11T05:46:53;2.93;;;2.73;;
3853;SDS011;1942;48.770;8.934;2022-08-11T05:49:38;3.10;;;2.90;;
3853;SDS011;1942;48.770;8.934;2022-08-11T05:52:23;4.40;;;3.10;;
3853;SDS011;1942;48.770;8.934;2022-08-11T05:55:09;7.17;;;3.50;;
3853;SDS011;1942;48.770;8.934;2022-08-11T05:57:55;7.77;;;3.97;;
3853;SDS011;1942;48.770;8.934;2022-08-11T06:00:26;3.47;;;3.17;;
3853;SDS011;1942;48.770;8.934;2022-08-11T06:02:53;4.10;;;3.17;;
3853;SDS011;1942;48.770;8.934;2022-08-11T06:05:29;3.53;;;2.90;;
3853;SDS011;1942;48.770;8.934;2022-08-11T06:07:59;3.90;;;3.00;;
3853;SDS011;1942;48.770;8.934;2022-08-11T06:10:27;3.20;;;2.90;;
3853;SDS011;1942;48.770;8.934;2022-08-11T06:12:57;3.27;;;2.87;;
3853;SDS011;1942;48.770;8.934;2022-08-11T06:15:27;5.33;;;2.97;;
3853;SDS011;1942;48.770;8.934;2022-08-11T06:17:57;3.80;;;3.30;;
3853;SDS011;1942;48.770;8.934;2022-08-11T06:20:26;3.27;;;2.97;;
3853;SDS011;1942;48.770;8.934;2022-08-11T06:23:01;4.20;;;2.90;;
3853;SDS011;1942;48.770;8.934;2022-08-11T06:25:29;6.67;;;3.20;;
3853;SDS011;1942;48.770;8.934;2022-08-11T06:28:00;3.83;;;2.93;;
3853;SDS011;1942;48.770;8.934;2022-08-11T06:30:33;4.47;;;2.83;;
3853;SDS011;1942;48.770;8.934;2022-08-11T06:33:05;3.50;;;2.90;;
3853;SDS011;1942;48.770;8.934;2022-08-11T06:35:35;3.43;;;2.90;;
3853;SDS011;1942;48.770;8.934;2022-08-11T06:38:13;3.97;;;2.50;;
3853;SDS011;1942;48.770;8.934;2022-08-11T06:40:50;4.53;;;2.80;;
3853;SDS011;1942;48.770;8.934;2022-08-11T06:43:43;3.33;;;2.70;;
3853;SDS011;1942;48.770;8.934;2022-08-11T06:46:16;3.53;;;3.10;;
3853;SDS011;1942;48.770;8.934;2022-08-11T06:48:50;3.00;;;2.57;;
3853;SDS011;1942;48.770;8.934;2022-08-11T06:51:19;3.30;;;2.70;;
3853;SDS011;1942;48.770;8.934;2022-08-11T06:53:46;3.07;;;2.57;;
3853;SDS011;1942;48.770;8.934;2022-08-11T06:56:21;3.00;;;2.70;;
3853;SDS011;1942;48.770;8.934;2022-08-11T06:59:06;4.83;;;2.63;;
3853;SDS011;1942;48.770;8.934;2022-08-11T07:01:56;3.73;;;2.77;;
3853;SDS011;1942;48.770;8.934;2022-08-11T07:04:39;2.93;;;2.63;;
3853;SDS011;1942;48.770;8.934;2022-08-11T07:07:25;3.00;;;2.70;;
3853;SDS011;1942;48.770;8.934;2022-08-11T07:10:32;3.23;;;2.33;;
3853;SDS011;1942;48.770;8.934;2022-08-11T07:13:30;3.83;;;2.63;;
3853;SDS011;1942;48.770;8.934;2022-08-11T07:16:20;2.90;;;2.70;;
3853;SDS011;1942;48.770;8.934;2022-08-11T07:18:53;2.63;;;2.43;;
3853;SDS011;1942;48.770;8.934;2022-08-11T07:21:42;5.10;;;2.73;;
3853;SDS011;1942;48.770;8.934;2022-08-11T07:24:31;3.40;;;2.90;;
3853;SDS011;1942;48.770;8.934;2022-08-11T07:27:19;3.00;;;2.50;;
3853;SDS011;1942;48.770;8.934;2022-08-11T07:30:07;3.97;;;2.67;;
3853;SDS011;1942;48.770;8.934;2022-08-11T07:32:37;6.17;;;4.20;;
3853;SDS011;1942;48.770;8.934;2022-08-11T07:35:11;5.30;;;2.67;;
3853;SDS011;1942;48.770;8.934;2022-08-11T07:37:41;7.80;;;3.73;;
3853;SDS011;1942;48.770;8.934;2022-08-11T07:40:12;3.40;;;3.00;;
3853;SDS011;1942;48.770;8.934;2022-08-11T07:42:39;3.43;;;2.73;;
3853;SDS011;1942;48.770;8.934;2022-08-11T07:45:11;2.97;;;2.50;;
3853;SDS011;1942;48.770;8.934;2022-08-11T07:47:55;4.23;;;2.73;;
3853;SDS011;1942;48.770;8.934;2022-08-11T07:50:41;3.10;;;2.80;;
3853;SDS011;1942;48.770;8.934;2022-08-11T07:53:26;4.90;;;3.07;;
3853;SDS011;1942;48.770;8.934;2022-08-11T07:55:55;4.33;;;3.80;;
3853;SDS011;1942;48.770;8.934;2022-08-11T07:58:24;7.33;;;4.13;;
3853;SDS011;1942;48.770;8.934;2022-08-11T08:01:10;4.43;;;3.27;;
3853;SDS011;1942;48.770;8.934;2022-08-11T08:03:56;3.60;;;2.60;;
3853;SDS011;1942;48.770;8.934;2022-08-11T08:06:49;4.55;;;4.03;;
3853;SDS011;1942;48.770;8.934;2022-08-11T08:09:34;4.68;;;2.45;;
3853;SDS011;1942;48.770;8.934;2022-08-11T08:12:19;3.78;;;2.83;;
3853;SDS011;1942;48.770;8.934;2022-08-11T08:15:05;5.65;;;2.67;;
3853;SDS011;1942;48.770;8.934;2022-08-11T08:17:51;5.93;;;3.00;;
3853;SDS011;1942;48.770;8.934;2022-08-11T08:20:23;3.38;;;2.80;;
3853;SDS011;1942;48.770;8.934;2022-08-11T08:22:54;5.15;;;2.78;;
3853;SDS011;1942;48.770;8.934;2022-08-11T08:25:23;2.80;;;2.38;;
3853;SDS011;1942;48.770;8.934;2022-08-11T08:27:52;2.75;;;2.55;;
3853;SDS011;1942;48.770;8.934;2022-08-11T08:30:20;3.45;;;2.53;;
3853;SDS011;1942;48.770;8.934;2022-08-11T08:33:04;4.45;;;2.53;;
3853;SDS011;1942;48.770;8.934;2022-08-11T08:35:34;4.75;;;2.70;;
3853;SDS011;1942;48.770;8.934;2022-08-11T08:38:03;2.92;;;2.47;;
3853;SDS011;1942;48.770;8.934;2022-08-11T08:40:30;7.72;;;2.85;;
3853;SDS011;1942;48.770;8.934;2022-08-11T08:42:58;4.18;;;2.35;;
3853;SDS011;1942;48.770;8.934;2022-08-11T08:45:32;3.10;;;2.80;;
3853;SDS011;1942;48.770;8.934;2022-08-11T08:48:02;3.33;;;2.50;;
3853;SDS011;1942;48.770;8.934;2022-08-11T08:50:32;3.92;;;2.88;;
3853;SDS011;1942;48.770;8.934;2022-08-11T08:53:21;2.60;;;2.28;;
3853;SDS011;1942;48.770;8.934;2022-08-11T08:55:50;7.78;;;3.97;;
3853;SDS011;1942;48.770;8.934;2022-08-11T08:58:20;3.83;;;2.40;;
3853;SDS011;1942;48.770;8.934;2022-08-11T09:00:49;3.70;;;3.00;;
3853;SDS011;1942;48.770;8.934;2022-08-11T09:03:18;2.13;;;2.00;;
3853;SDS011;1942;48.770;8.934;2022-08-11T09:05:46;5.50;;;2.88;;
3853;SDS011;1942;48.770;8.934;2022-08-11T09:08:13;3.60;;;2.30;;
3853;SDS011;1942;48.770;8.934;2022-08-11T09:10:45;3.08;;;2.00;;
3853;SDS011;1942;48.770;8.934;2022-08-11T09:13:32;4.75;;;2.30;;
3853;SDS011;1942;48.770;8.934;2022-08-11T09:16:01;4.63;;;2.40;;
3853;SDS011;1942;48.770;8.934;2022-08-11T09:18:29;3.70;;;2.40;;
3853;SDS011;1942;48.770;8.934;2022-08-11T09:20:56;2.40;;;2.20;;
3853;SDS011;1942;48.770;8.934;2022-08-11T09:23:24;3.65;;;1.90;;
3853;SDS011;1942;48.770;8.934;2022-08-11T09:26:10;2.50;;;2.30;;
3853;SDS011;1942;48.770;8.934;2022-08-11T09:28:55;4.13;;;2.35;;
3853;SDS011;1942;48.770;8.934;2022-08-11T09:31:24;3.58;;;1.70;;
3853;SDS011;1942;48.770;8.934;2022-08-11T09:33:51;2.40;;;2.17;;
3853;SDS011;1942;48.770;8.934;2022-08-11T09:36:20;3.97;;;2.30;;
3853;SDS011;1942;48.770;8.934;2022-08-11T09:39:05;2.65;;;2.45;;
3853;SDS011;1942;48.770;8.934;2022-08-11T09:41:51;3.00;;;2.58;;
3853;SDS011;1942;48.770;8.934;2022-08-11T09:44:19;2.80;;;2.20;;
3853;SDS011;1942;48.770;8.934;2022-08-11T09:47:04;2.63;;;1.90;;
3853;SDS011;1942;48.770;8.934;2022-08-11T09:49:37;4.93;;;2.58;;
3853;SDS011;1942;48.770;8.934;2022-08-11T09:52:04;2.20;;;2.00;;
3853;SDS011;1942;48.770;8.934;2022-08-11T09:54:33;2.78;;;1.60;;
3853;SDS011;1942;48.770;8.934;2022-08-11T09:57:02;2.78;;;1.85;;
3853;SDS011;1942;48.770;8.934;2022-08-11T09:59:47;4.30;;;1.95;;
3853;SDS011;1942;48.770;8.934;2022-08-11T10:02:16;2.92;;;2.00;;
3853;SDS011;1942;48.770;8.934;2022-08-11T10:04:48;2.90;;;2.10;;
3853;SDS011;1942;48.770;8.934;2022-08-11T10:07:18;3.90;;;2.00;;
3853;SDS011;1942;48.770;8.934;2022-08-11T10:09:46;2.53;;;2.05;;
3853;SDS011;1942;48.770;8.934;2022-08-11T10:12:20;5.57;;;2.50;;
3853;SDS011;1942;48.770;8.934;2022-08-11T10:14:50;2.58;;;2.03;;
3853;SDS011;1942;48.770;8.934;2022-08-11T10:17:38;2.70;;;2.00;;
3853;SDS011;1942;48.770;8.934;2022-08-11T10:20:29;3.95;;;2.10;;
3853;SDS011;1942;48.770;8.934;2022-08-11T10:22:58;3.17;;;1.90;;
3853;SDS011;1942;48.770;8.934;2022-08-11T10:25:40;2.75;;;1.80;;
3853;SDS011;1942;48.770;8.934;2022-08-11T10:28:26;2.22;;;1.92;;
3853;SDS011;1942;48.770;8.934;2022-08-11T10:30:54;2.47;;;2.03;;
3853;SDS011;1942;48.770;8.934;2022-08-11T10:33:39;3.38;;;2.00;;
3853;SDS011;1942;48.770;8.934;2022-08-11T10:36:25;2.47;;;2.25;;
3853;SDS011;1942;48.770;8.934;2022-08-11T10:38:53;3.83;;;2.15;;
3853;SDS011;1942;48.770;8.934;2022-08-11T10:41:21;2.00;;;1.85;;
3853;SDS011;1942;48.770;8.934;2022-08-11T10:44:07;3.50;;;3.15;;
3853;SDS011;1942;48.770;8.934;2022-08-11T10:46:35;2.45;;;2.08;;
3853;SDS011;1942;48.770;8.934;2022-08-11T10:49:21;2.00;;;1.90;;
3853;SDS011;1942;48.770;8.934;2022-08-11T10:51:50;2.03;;;1.80;;
3853;SDS011;1942;48.770;8.934;2022-08-11T10:54:35;3.90;;;1.98;;
3853;SDS011;1942;48.770;8.934;2022-08-11T10:57:22;3.63;;;2.05;;
3853;SDS011;1942;48.770;8.934;2022-08-11T11:00:10;2.25;;;2.03;;
3853;SDS011;1942;48.770;8.934;2022-08-11T11:02:39;3.33;;;2.00;;
3853;SDS011;1942;48.770;8.934;2022-08-11T11:05:08;5.18;;;1.80;;
3853;SDS011;1942;48.770;8.934;2022-08-11T11:07:42;2.55;;;1.95;;
3853;SDS011;1942;48.770;8.934;2022-08-11T11:10:17;3.75;;;1.85;;
3853;SDS011;1942;48.770;8.934;2022-08-11T11:12:45;2.40;;;1.98;;
3853;SDS011;1942;48.770;8.934;2022-08-11T11:15:35;2.15;;;1.95;;
3853;SDS011;1942;48.770;8.934;2022-08-11T11:18:21;5.07;;;1.90;;
3853;SDS011;1942;48.770;8.934;2022-08-11T11:20:52;2.17;;;1.90;;
3853;SDS011;1942;48.770;8.934;2022-08-11T11:23:22;2.25;;;1.90;;
3853;SDS011;1942;48.770;8.934;2022-08-11T11:25:56;5.25;;;2.10;;
3853;SDS011;1942;48.770;8.934;2022-08-11T11:28:37;2.83;;;1.77;;
3853;SDS011;1942;48.770;8.934;2022-08-11T11:31:45;3.00;;;1.90;;
3853;SDS011;1942;48.770;8.934;2022-08-11T11:34:25;2.03;;;1.83;;
3853;SDS011;1942;48.770;8.934;2022-08-11T11:37:03;2.30;;;2.00;;
3853;SDS011;1942;48.770;8.934;2022-08-11T11:39:31;3.15;;;1.90;;
3853;SDS011;1942;48.770;8.934;2022-08-11T11:41:59;2.03;;;1.83;;
3853;SDS011;1942;48.770;8.934;2022-08-11T11:44:29;1.95;;;1.60;;
3853;SDS011;1942;48.770;8.934;2022-08-11T11:46:58;2.70;;;1.65;;
3853;SDS011;1942;48.770;8.934;2022-08-11T11:49:27;2.78;;;1.50;;
3853;SDS011;1942;48.770;8.934;2022-08-11T11:51:56;3.38;;;1.73;;
3853;SDS011;1942;48.770;8.934;2022-08-11T11:54:25;2.38;;;1.80;;
3853;SDS011;1942;48.770;8.934;2022-08-11T11:56:54;3.47;;;2.00;;
3853;SDS011;1942;48.770;8.934;2022-08-11T11:59:23;3.55;;;1.70;;
3853;SDS011;1942;48.770;8.934;2022-08-11T12:02:12;4.35;;;1.95;;
3853;SDS011;1942;48.770;8.934;2022-08-11T12:04:41;4.43;;;2.10;;
3853;SDS011;1942;48.770;8.934;2022-08-11T12:07:11;2.10;;;1.90;;
3853;SDS011;1942;48.770;8.934;2022-08-11T12:10:02;2.45;;;2.00;;
3853;SDS011;1942;48.770;8.934;2022-08-11T12:12:29;2.60;;;2.03;;
3853;SDS011;1942;48.770;8.934;2022-08-11T12:15:14;4.00;;;1.70;;
3853;SDS011;1942;48.770;8.934;2022-08-11T12:17:44;2.10;;;1.73;;
3853;SDS011;1942;48.770;8.934;2022-08-11T12:20:11;5.10;;;1.90;;
3853;SDS011;1942;48.770;8.934;2022-08-11T12:22:43;1.88;;;1.77;;
3853;SDS011;1942;48.770;8.934;2022-08-11T12:25:33;4.85;;;1.90;;
3853;SDS011;1942;48.770;8.934;2022-08-11T12:28:26;2.60;;;1.90;;
3853;SDS011;1942;48.770;8.934;2022-08-11T12:30:55;1.92;;;1.70;;
3853;SDS011;1942;48.770;8.934;2022-08-11T12:33:23;3.15;;;1.83;;
3853;SDS011;1942;48.770;8.934;2022-08-11T12:35:52;2.10;;;1.90;;
3853;SDS011;1942;48.770;8.934;2022-08-11T12:38:23;2.00;;;1.85;;
3853;SDS011;1942;48.770;8.934;2022-08-11T12:40:51;3.25;;;2.00;;
3853;SDS011;1942;48.770;8.934;2022-08-11T12:43:37;2.20;;;2.00;;
3853;SDS011;1942;48.770;8.934;2022-08-11T12:46:28;3.60;;;1.65;;
3853;SDS011;1942;48.770;8.934;2022-08-11T12:48:58;5.10;;;1.60;;
3853;SDS011;1942;48.770;8.934;2022-08-11T12:51:49;3.00;;;2.00;;
3853;SDS011;1942;48.770;8.934;2022-08-11T12:54:24;2.15;;;1.67;;
3853;SDS011;1942;48.770;8.934;2022-08-11T12:56:55;2.40;;;1.67;;
3853;SDS011;1942;48.770;8.934;2022-08-11T12:59:43;4.72;;;1.83;;
3853;SDS011;1942;48.770;8.934;2022-08-11T13:02:28;2.85;;;2.00;;
3853;SDS011;1942;48.770;8.934;2022-08-11T13:05:14;4.30;;;1.88;;
3853;SDS011;1942;48.770;8.934;2022-08-11T13:07:42;2.15;;;1.92;;
3853;SDS011;1942;48.770;8.934;2022-08-11T13:10:11;2.35;;;1.80;;
3853;SDS011;1942;48.770;8.934;2022-08-11T13:12:59;2.95;;;1.60;;
3853;SDS011;1942;48.770;8.934;2022-08-11T13:15:25;3.60;;;1.75;;
3853;SDS011;1942;48.770;8.934;2022-08-11T13:17:53;2.20;;;1.60;;
3853;SDS011;1942;48.770;8.934;2022-08-11T13:20:21;2.17;;;1.60;;
3853;SDS011;1942;48.770;8.934;2022-08-11T13:22:51;2.03;;;1.60;;
3853;SDS011;1942;48.770;8.934;2022-08-11T13:25:21;2.40;;;1.70;;
3853;SDS011;1942;48.770;8.934;2022-08-11T13:27:50;2.22;;;1.70;;
3853;SDS011;1942;48.770;8.934;2022-08-11T13:30:19;1.90;;;1.60;;
3853;SDS011;1942;48.770;8.934;2022-08-11T13:33:07;3.10;;;1.80;;
3853;SDS011;1942;48.770;8.934;2022-08-11T13:35:36;2.80;;;1.85;;
3853;SDS011;1942;48.770;8.934;2022-08-11T13:38:04;1.73;;;1.60;;
3853;SDS011;1942;48.770;8.934;2022-08-11T13:40:31;2.53;;;1.80;;
3853;SDS011;1942;48.770;8.934;2022-08-11T13:42:59;1.85;;;1.75;;
3853;SDS011;1942;48.770;8.934;2022-08-11T13:45:26;1.92;;;1.80;;
3853;SDS011;1942;48.770;8.934;2022-08-11T13:47:54;2.05;;;1.85;;
3853;SDS011;1942;48.770;8.934;2022-08-11T13:50:23;3.50;;;2.22;;
3853;SDS011;1942;48.770;8.934;2022-08-11T13:53:14;2.42;;;1.80;;
3853;SDS011;1942;48.770;8.934;2022-08-11T13:55:44;3.30;;;1.60;;
3853;SDS011;1942;48.770;8.934;2022-08-11T13:58:12;1.98;;;1.73;;
3853;SDS011;1942;48.770;8.934;2022-08-11T14:00:39;1.75;;;1.65;;
3853;SDS011;1942;48.770;8.934;2022-08-11T14:03:10;3.00;;;1.55;;
3853;SDS011;1942;48.770;8.934;2022-08-11T14:05:38;1.70;;;1.60;;
3853;SDS011;1942;48.770;8.934;2022-08-11T14:08:08;2.22;;;2.03;;
3853;SDS011;1942;48.770;8.934;2022-08-11T14:10:40;3.78;;;2.60;;
3853;SDS011;1942;48.770;8.934;2022-08-11T14:13:07;3.90;;;2.30;;
3853;SDS011;1942;48.770;8.934;2022-08-11T14:15:54;2.58;;;1.70;;
3853;SDS011;1942;48.770;8.934;2022-08-11T14:18:28;2.10;;;1.90;;
3853;SDS011;1942;48.770;8.934;2022-08-11T14:20:57;4.47;;;1.95;;
3853;SDS011;1942;48.770;8.934;2022-08-11T14:23:45;3.78;;;2.08;;
3853;SDS011;1942;48.770;8.934;2022-08-11T14:26:15;2.40;;;2.20;;
3853;SDS011;1942;48.770;8.934;2022-08-11T14:28:51;2.63;;;1.70;;
3853;SDS011;1942;48.770;8.934;2022-08-11T14:31:19;3.95;;;1.67;;
3853;SDS011;1942;48.770;8.934;2022-08-11T14:33:47;1.98;;;1.45;;
3853;SDS011;1942;48.770;8.934;2022-08-11T14:36:14;3.92;;;1.63;;
3853;SDS011;1942;48.770;8.934;2022-08-11T14:38:42;2.60;;;2.00;;
3853;SDS011;1942;48.770;8.934;2022-08-11T14:41:09;4.20;;;1.88;;
3853;SDS011;1942;48.770;8.934;2022-08-11T14:43:55;1.98;;;1.77;;
3853;SDS011;1942;48.770;8.934;2022-08-11T14:46:40;4.50;;;1.75;;
3853;SDS011;1942;48.770;8.934;2022-08-11T14:49:25;2.83;;;1.90;;
3853;SDS011;1942;48.770;8.934;2022-08-11T14:51:53;3.58;;;2.38;;
3853;SDS011;1942;48.770;8.934;2022-08-11T14:54:22;2.15;;;1.60;;
3853;SDS011;1942;48.770;8.934;2022-08-11T14:57:08;1.67;;;1.58;;
3853;SDS011;1942;48.770;8.934;2022-08-11T14:59:37;1.85;;;1.60;;
3853;SDS011;1942;48.770;8.934;2022-08-11T15:02:05;2.13;;;1.70;;
3853;SDS011;1942;48.770;8.934;2022-08-11T15:04:50;1.77;;;1.67;;
3853;SDS011;1942;48.770;8.934;2022-08-11T15:07:17;2.55;;;1.70;;
3853;SDS011;1942;48.770;8.934;2022-08-11T15:09:53;3.85;;;1.52;;
3853;SDS011;1942;48.770;8.934;2022-08-11T15:12:21;2.47;;;1.70;;
3853;SDS011;1942;48.770;8.934;2022-08-11T15:14:49;3.72;;;1.85;;
3853;SDS011;1942;48.770;8.934;2022-08-11T15:17:34;2.63;;;2.00;;
3853;SDS011;1942;48.770;8.934;2022-08-11T15:20:03;2.75;;;1.83;;
3853;SDS011;1942;48.770;8.934;2022-08-11T15:22:51;3.17;;;1.67;;
3853;SDS011;1942;48.770;8.934;2022-08-11T15:25:35;3.60;;;1.70;;
3853;SDS011;1942;48.770;8.934;2022-08-11T15:28:04;2.38;;;1.63;;
3853;SDS011;1942;48.770;8.934;2022-08-11T15:30:52;3.42;;;1.80;;
3853;SDS011;1942;48.770;8.934;2022-08-11T15:33:39;2.05;;;1.50;;
3853;SDS011;1942;48.770;8.934;2022-08-11T15:36:26;1.90;;;1.52;;
3853;SDS011;1942;48.770;8.934;2022-08-11T15:39:15;4.53;;;1.77;;
3853;SDS011;1942;48.770;8.934;2022-08-11T15:41:46;4.47;;;1.73;;
3853;SDS011;1942;48.770;8.934;2022-08-11T15:44:34;1.65;;;1.40;;
3853;SDS011;1942;48.770;8.934;2022-08-11T15:47:26;3.95;;;1.80;;
3853;SDS011;1942;48.770;8.934;2022-08-11T15:49:59;2.53;;;2.00;;
3853;SDS011;1942;48.770;8.934;2022-08-11T15:52:31;2.40;;;1.55;;
3853;SDS011;1942;48.770;8.934;2022-08-11T15:55:06;3.13;;;2.10;;
3853;SDS011;1942;48.770;8.934;2022-08-11T15:57:34;1.77;;;1.67;;
3853;SDS011;1942;48.770;8.934;2022-08-11T16:03:48;1.83;;;1.65;;
3853;SDS011;1942;48.770;8.934;2022-08-11T16:06:39;3.08;;;1.70;;
3853;SDS011;1942;48.770;8.934;2022-08-11T16:09:09;2.72;;;1.90;;
3853;SDS011;1942;48.770;8.934;2022-08-11T16:11:38;1.75;;;1.50;;
3853;SDS011;1942;48.770;8.934;2022-08-11T16:14:07;2.85;;;1.77;;
3853;SDS011;1942;48.770;8.934;2022-08-11T16:16:53;2.05;;;1.65;;
3853;SDS011;1942;48.770;8.934;2022-08-11T16:19:25;3.67;;;1.65;;
3853;SDS011;1942;48.770;8.934;2022-08-11T16:21:59;2.00;;;1.60;;
3853;SDS011;1942;48.770;8.934;2022-08-11T16:24:26;1.70;;;1.60;;
3853;SDS011;1942;48.770;8.934;2022-08-11T16:26:54;1.58;;;1.45;;
3853;SDS011;1942;48.770;8.934;2022-08-11T16:29:23;1.90;;;1.63;;
3853;SDS011;1942;48.770;8.934;2022-08-11T16:31:52;2.58;;;1.88;;
3853;SDS011;1942;48.770;8.934;2022-08-11T16:34:40;2.90;;;1.80;;
3853;SDS011;1942;48.770;8.934;2022-08-11T16:37:26;2.22;;;1.73;;
3853;SDS011;1942;48.770;8.934;2022-08-11T16:40:12;1.50;;;1.40;;
3853;SDS011;1942;48.770;8.934;2022-08-11T16:42:41;2.42;;;1.50;;
3853;SDS011;1942;48.770;8.934;2022-08-11T16:45:28;1.83;;;1.42;;
3853;SDS011;1942;48.770;8.934;2022-08-11T16:48:13;3.25;;;1.67;;
3853;SDS011;1942;48.770;8.934;2022-08-11T16:50:41;1.98;;;1.80;;
3853;SDS011;1942;48.770;8.934;2022-08-11T16:53:08;2.17;;;1.73;;
3853;SDS011;1942;48.770;8.934;2022-08-11T16:55:35;2.03;;;1.60;;
3853;SDS011;1942;48.770;8.934;2022-08-11T16:58:03;3.25;;;2.30;;
3853;SDS011;1942;48.770;8.934;2022-08-11T17:00:55;2.10;;;1.90;;
3853;SDS011;1942;48.770;8.934;2022-08-11T17:03:23;3.92;;;2.42;;
3853;SDS011;1942;48.770;8.934;2022-08-11T17:06:10;1.77;;;1.67;;
3853;SDS011;1942;48.770;8.934;2022-08-11T17:08:55;2.97;;;1.70;;
3853;SDS011;1942;48.770;8.934;2022-08-11T17:11:47;1.95;;;1.60;;
3853;SDS011;1942;48.770;8.934;2022-08-11T17:14:36;4.57;;;1.80;;
3853;SDS011;1942;48.770;8.934;2022-08-11T17:17:07;2.53;;;1.80;;
3853;SDS011;1942;48.770;8.934;2022-08-11T17:19:41;1.88;;;1.60;;
3853;SDS011;1942;48.770;8.934;2022-08-11T17:22:14;1.88;;;1.70;;